createdAt,value
2023-02-22T00:08:17.673Z,3.15
2023-02-22T00:16:40.541Z,3.12
2023-02-22T00:25:03.447Z,3.09
2023-02-22T00:33:26.256Z,3.01
2023-02-22T00:41:49.768Z,2.97
2023-02-22T00:50:13.873Z,2.93
2023-02-22T00:58:36.691Z,2.85
2023-02-22T01:07:00.689Z,2.77
2023-02-22T01:15:25.719Z,2.70
2023-02-22T01:23:48.587Z,2.60
2023-02-22T01:32:12.096Z,2.41
2023-02-22T01:40:38.116Z,2.17
2023-02-22T01:49:06.477Z,1.99
2023-02-22T01:57:35.534Z,1.90
2023-02-22T02:06:03.023Z,1.85
2023-02-22T02:14:32.091Z,1.81
2023-02-22T02:23:00.972Z,1.77
2023-02-22T02:32:12.317Z,1.69
2023-02-22T02:40:47.846Z,1.52
2023-02-22T02:49:19.244Z,1.36
2023-02-22T02:57:42.129Z,1.33
2023-02-22T03:06:23.888Z,1.27
2023-02-22T03:15:00.389Z,1.10
2023-02-22T03:23:30.067Z,0.98
2023-02-22T03:32:01.642Z,0.96
2023-02-22T03:40:43.517Z,0.99
2023-02-22T03:49:17.600Z,1.02
2023-02-22T03:57:46.535Z,1.13
2023-02-22T04:06:10.053Z,1.29
2023-02-22T04:14:34.490Z,1.39
2023-02-22T04:22:58.216Z,1.33
2023-02-22T04:31:21.299Z,1.22
2023-02-22T04:39:45.406Z,0.98
2023-02-22T04:48:08.526Z,0.72
2023-02-22T04:56:31.912Z,0.61
2023-02-22T05:04:55.692Z,0.57
2023-02-22T05:13:18.659Z,0.53
2023-02-22T05:21:41.517Z,0.49
2023-02-22T05:30:05.844Z,0.48
2023-02-22T05:38:28.993Z,0.56
2023-02-22T05:46:52.203Z,0.68
2023-02-22T05:55:17.818Z,0.62
2023-02-22T06:03:40.644Z,0.25
2023-02-22T06:12:03.908Z,-0.08
2023-02-22T06:20:28.786Z,-0.20
2023-02-22T06:28:51.704Z,-0.15
2023-02-22T06:37:14.565Z,-0.01
2023-02-22T06:45:37.547Z,0.12
2023-02-22T06:54:00.427Z,0.23
2023-02-22T07:02:23.228Z,0.33
2023-02-22T07:10:46.141Z,0.46
2023-02-22T07:19:08.994Z,0.62
2023-02-22T07:27:31.790Z,0.78
2023-02-22T07:46:41.489Z,1.00
2023-02-22T07:55:04.613Z,1.04
2023-02-22T08:03:27.634Z,1.16
2023-02-22T08:11:50.538Z,1.32
2023-02-22T08:20:13.947Z,1.39
2023-02-22T08:28:37.381Z,1.51
2023-02-22T08:37:00.296Z,1.65
2023-02-22T08:45:23.925Z,1.65
2023-02-22T08:53:46.739Z,1.62
2023-02-22T09:02:16.173Z,1.64
2023-02-22T09:10:39.219Z,1.68
2023-02-22T09:19:02.071Z,1.83
2023-02-22T09:27:28.247Z,1.87
2023-02-22T09:35:51.325Z,1.89
2023-02-22T09:44:23.775Z,1.87
2023-02-22T09:53:22.313Z,1.84
2023-02-22T10:01:50.085Z,1.90
2023-02-22T10:10:22.773Z,2.09
2023-02-22T10:18:48.485Z,2.27
2023-02-22T10:27:28.268Z,2.42
2023-02-22T10:35:53.713Z,2.59
2023-02-22T10:44:17.048Z,2.70
2023-02-22T10:52:39.890Z,2.69
2023-02-22T11:01:18.874Z,2.61
2023-02-22T11:09:48.369Z,2.54
2023-02-22T11:18:38.019Z,2.48
2023-02-22T11:27:08.357Z,2.53
2023-02-22T11:35:31.497Z,2.61
2023-02-22T11:43:55.105Z,2.64
2023-02-22T11:52:22.208Z,2.58
2023-02-22T12:01:01.652Z,2.57
2023-02-22T12:09:33.652Z,2.66
2023-02-22T12:18:13.171Z,2.71
2023-02-22T12:26:41.569Z,2.80
2023-02-22T12:35:25.001Z,2.87
2023-02-22T12:43:55.622Z,2.82
2023-02-22T12:52:43.668Z,2.73
2023-02-22T13:01:20.821Z,2.42
2023-02-22T13:10:00.465Z,2.11
2023-02-22T13:18:29.725Z,1.98
2023-02-22T13:27:06.316Z,1.85
2023-02-22T13:35:55.119Z,1.66
2023-02-22T13:44:36.590Z,1.55
2023-02-22T13:53:05.147Z,1.38
2023-02-22T14:01:46.077Z,1.20
2023-02-22T14:10:56.487Z,1.08
2023-02-22T14:19:23.585Z,0.97
2023-02-22T14:27:46.888Z,0.84
2023-02-22T14:36:10.518Z,0.79
2023-02-22T14:45:10.007Z,0.78
2023-02-22T14:53:49.042Z,0.63
2023-02-22T15:02:13.854Z,0.56
2023-02-22T15:10:46.899Z,0.59
2023-02-22T15:19:11.280Z,0.51
2023-02-22T15:27:37.426Z,0.41
2023-02-22T15:36:01.104Z,0.33
2023-02-22T15:44:26.124Z,0.29
2023-02-22T15:53:25.656Z,0.24
2023-02-22T16:01:53.237Z,0.06
2023-02-22T16:10:34.848Z,-0.04
2023-02-22T16:19:28.811Z,-0.14
2023-02-22T16:27:57.497Z,-0.27
2023-02-22T16:36:35.828Z,-0.34
2023-02-22T16:44:58.887Z,-0.42
2023-02-22T16:53:24.478Z,-0.55
2023-02-22T17:01:47.567Z,-0.62
2023-02-22T17:10:17.869Z,-0.67
2023-02-22T17:18:40.877Z,-0.75
2023-02-22T17:27:03.977Z,-0.82
2023-02-22T17:35:27.208Z,-0.85
2023-02-22T17:43:50.780Z,-0.92
2023-02-22T17:52:15.887Z,-0.91
2023-02-22T18:00:39.433Z,-0.94
2023-02-22T18:09:10.330Z,-0.99
2023-02-22T18:17:33.874Z,-0.97
2023-02-22T18:26:10.040Z,-1.03
2023-02-22T18:34:33.874Z,-1.15
2023-02-22T18:43:07.506Z,-1.25
2023-02-22T18:51:35.938Z,-1.23
2023-02-22T18:59:58.939Z,-1.30
2023-02-22T19:08:22.571Z,-1.47
2023-02-22T19:16:46.584Z,-1.61
2023-02-22T19:25:09.567Z,-1.67
2023-02-22T19:33:32.431Z,-1.75
2023-02-22T19:41:56.410Z,-1.82
2023-02-22T19:50:21.128Z,-1.84
2023-02-22T19:58:46.130Z,-1.79
2023-02-22T20:07:08.918Z,-1.75
2023-02-22T20:15:33.797Z,-1.75
2023-02-22T20:23:59.394Z,-1.77
2023-02-22T20:32:24.812Z,-1.78
2023-02-22T20:40:48.205Z,-1.76
2023-02-22T20:49:15.039Z,-1.78
2023-02-22T20:57:38.529Z,-1.82
2023-02-22T21:06:05.071Z,-1.89
2023-02-22T21:14:29.561Z,-1.95
2023-02-22T21:22:52.761Z,-1.99
2023-02-22T21:31:15.922Z,-1.97
2023-02-22T21:39:40.935Z,-1.94
2023-02-22T21:48:05.049Z,-1.94
2023-02-22T21:56:30.368Z,-1.95
2023-02-22T22:04:53.363Z,-1.96
2023-02-22T22:13:16.242Z,-1.92
2023-02-22T22:21:40.912Z,-1.84
2023-02-22T22:30:05.462Z,-1.88
2023-02-22T22:38:29.584Z,-1.92
2023-02-22T22:46:55.006Z,-1.93
2023-02-22T22:55:19.141Z,-1.90
2023-02-22T23:03:43.799Z,-1.82
2023-02-22T23:12:10.152Z,-1.79
2023-02-22T23:20:38.613Z,-1.84
2023-02-22T23:29:02.688Z,-1.89
2023-02-22T23:37:25.571Z,-1.89
2023-02-22T23:45:48.935Z,-1.90
2023-02-22T23:54:14.886Z,-1.94
